TimeMDT,TemperatureF,Dew PointF,Humidity,Sea Level PressureIn,VisibilityMPH,Wind Direction,Wind SpeedMPH,Gust SpeedMPH,PrecipitationIn,Events,Conditions,WindDirDegrees,DateUTC
12:56 AM,28.0,24.1,85,29.89,-9999.0,NNW,3.5,-,N/A,,Unknown,340,2012-10-20 06:56:00
1:56 AM,28.9,24.1,82,29.85,-9999.0,Calm,Calm,-,N/A,,Unknown,0,2012-10-20 07:56:00
2:56 AM,32.0,27.0,82,29.81,-9999.0,Calm,Calm,-,N/A,,Unknown,0,2012-10-20 08:56:00
3:56 AM,43.0,27.0,53,29.72,-9999.0,Variable,6.9,-,N/A,,Unknown,0,2012-10-20 09:56:00
4:56 AM,43.0,25.0,49,29.71,-9999.0,West,5.8,-,N/A,,Unknown,270,2012-10-20 10:56:00
5:56 AM,42.1,24.1,49,29.72,-9999.0,Calm,Calm,-,N/A,,Unknown,0,2012-10-20 11:56:00
6:56 AM,45.0,23.0,42,29.70,-9999.0,Variable,4.6,-,N/A,,Unknown,0,2012-10-20 12:56:00
7:56 AM,44.1,24.1,45,29.69,-9999.0,Variable,6.9,-,N/A,,Unknown,0,2012-10-20 13:56:00
8:56 AM,44.1,27.0,51,29.68,-9999.0,Variable,5.8,-,N/A,,Unknown,0,2012-10-20 14:56:00
9:56 AM,43.0,30.0,60,29.70,-9999.0,Variable,6.9,18.4,N/A,,Unknown,0,2012-10-20 15:56:00
10:56 AM,43.0,30.9,62,29.74,-9999.0,West,8.1,25.3,N/A,,Unknown,260,2012-10-20 16:56:00
11:56 AM,45.0,32.0,60,29.72,-9999.0,WSW,9.2,21.9,N/A,,Unknown,240,2012-10-20 17:56:00
12:56 PM,45.0,34.0,65,29.71,-9999.0,WSW,10.4,32.2,N/A,,Unknown,250,2012-10-20 18:56:00
1:56 PM,48.0,32.0,54,29.68,-9999.0,West,15.0,28.8,N/A,,Unknown,260,2012-10-20 19:56:00
2:56 PM,46.9,33.1,59,29.67,-9999.0,West,10.4,23.0,N/A,,Unknown,270,2012-10-20 20:56:00
3:56 PM,46.9,30.0,52,29.62,-9999.0,WSW,10.4,28.8,N/A,,Unknown,240,2012-10-20 21:56:00
4:56 PM,45.0,28.9,53,29.64,-9999.0,WSW,10.4,23.0,N/A,,Unknown,250,2012-10-20 22:56:00
5:56 PM,42.1,28.0,58,29.68,-9999.0,West,9.2,19.6,N/A,,Unknown,260,2012-10-20 23:56:00
6:56 PM,41.0,27.0,57,29.67,-9999.0,WSW,10.4,27.6,N/A,,Unknown,240,2012-10-21 00:56:00
7:56 PM,39.9,28.0,63,29.69,-9999.0,Variable,4.6,20.7,N/A,,Unknown,0,2012-10-21 01:56:00
8:56 PM,39.0,27.0,62,29.69,-9999.0,West,9.2,18.4,N/A,,Unknown,270,2012-10-21 02:56:00
9:56 PM,39.0,27.0,62,29.70,-9999.0,West,10.4,24.2,N/A,,Unknown,270,2012-10-21 03:56:00
10:56 PM,37.9,27.0,65,29.71,-9999.0,Variable,5.8,-,N/A,,Unknown,0,2012-10-21 04:56:00
11:56 PM,37.9,25.0,60,29.72,-9999.0,West,3.5,-,N/A,,Unknown,270,2012-10-21 05:56:00